createdAt,value
2017-09-14T00:02:13.682Z,12.62
2017-09-14T00:04:41.995Z,12.58
2017-09-14T00:07:11.083Z,12.60
2017-09-14T00:09:40.171Z,12.60
2017-09-14T00:12:08.469Z,12.63
2017-09-14T00:14:36.822Z,12.59
2017-09-14T00:17:05.131Z,12.54
2017-09-14T00:19:33.437Z,12.46
2017-09-14T00:22:01.754Z,12.44
2017-09-14T00:24:30.055Z,12.41
2017-09-14T00:26:59.126Z,12.43
2017-09-14T00:29:27.434Z,12.35
2017-09-14T00:31:55.743Z,12.32
2017-09-14T00:34:24.052Z,12.35
2017-09-14T00:36:52.384Z,12.40
2017-09-14T00:39:20.686Z,12.40
2017-09-14T00:41:48.999Z,12.40
2017-09-14T00:44:18.083Z,12.37
2017-09-14T00:46:46.409Z,12.37
2017-09-14T00:49:14.718Z,12.35
2017-09-14T00:51:43.036Z,12.31
2017-09-14T00:54:12.124Z,12.23
2017-09-14T00:56:41.195Z,12.14
2017-09-14T00:59:09.538Z,12.10
2017-09-14T01:01:37.838Z,12.09
2017-09-14T01:04:06.154Z,12.13
2017-09-14T01:06:35.251Z,12.13
2017-09-14T01:09:04.347Z,12.13
2017-09-14T01:11:33.425Z,12.16
2017-09-14T01:14:25.157Z,12.21
2017-09-14T01:16:54.243Z,12.24
2017-09-14T01:19:22.546Z,12.26
2017-09-14T01:21:50.870Z,12.36
2017-09-14T01:24:19.194Z,12.56
2017-09-14T01:26:48.279Z,12.69
2017-09-14T01:29:40.022Z,12.78
2017-09-14T01:32:09.114Z,12.90
2017-09-14T01:34:38.189Z,12.94
2017-09-14T01:37:06.543Z,13.02
2017-09-14T01:39:34.848Z,13.01
2017-09-14T01:42:03.938Z,13.04
2017-09-14T01:44:32.273Z,13.08
2017-09-14T01:47:00.574Z,13.13
2017-09-14T01:49:31.765Z,13.14
2017-09-14T01:52:00.825Z,13.11
2017-09-14T01:54:29.148Z,13.13
2017-09-14T01:56:57.450Z,13.11
2017-09-14T01:59:25.758Z,13.04
2017-09-14T02:01:54.060Z,13.06
2017-09-14T02:04:23.179Z,13.12
2017-09-14T02:06:51.484Z,13.12
2017-09-14T02:09:19.781Z,13.19
2017-09-14T02:11:48.418Z,13.21
2017-09-14T02:14:16.734Z,13.28
2017-09-14T02:16:45.047Z,13.34
2017-09-14T02:19:14.121Z,13.39
2017-09-14T02:21:42.434Z,13.44
2017-09-14T02:24:10.731Z,13.47
2017-09-14T02:26:39.046Z,13.49
2017-09-14T02:29:07.341Z,13.56
2017-09-14T02:31:35.683Z,13.59
2017-09-14T02:34:04.036Z,13.62
2017-09-14T02:36:32.337Z,13.67
2017-09-14T02:39:00.642Z,13.73
2017-09-14T02:41:28.950Z,13.78
2017-09-14T02:43:57.257Z,13.77
2017-09-14T02:46:25.555Z,13.80
2017-09-14T02:48:53.863Z,13.83
2017-09-14T02:51:22.929Z,13.83
2017-09-14T02:53:51.250Z,13.84
2017-09-14T02:56:20.321Z,13.85
2017-09-14T02:58:48.654Z,13.79
2017-09-14T03:01:16.961Z,13.81
2017-09-14T03:03:45.328Z,13.49
2017-09-14T03:06:13.667Z,13.23
2017-09-14T03:08:41.978Z,13.12
2017-09-14T03:11:10.285Z,13.18
2017-09-14T03:13:38.583Z,13.02
2017-09-14T03:16:07.673Z,12.84
2017-09-14T03:18:36.737Z,13.00
2017-09-14T03:21:05.063Z,13.02
2017-09-14T03:23:33.362Z,13.02
2017-09-14T03:26:01.707Z,12.96
2017-09-14T03:28:30.778Z,12.88
2017-09-14T03:30:59.099Z,12.81
2017-09-14T03:33:27.417Z,12.81
2017-09-14T03:35:55.730Z,12.85
2017-09-14T03:38:24.828Z,12.80
2017-09-14T03:40:53.885Z,12.66
2017-09-14T03:43:22.193Z,12.61
2017-09-14T03:45:51.254Z,12.67
2017-09-14T03:48:19.581Z,12.72
2017-09-14T03:50:47.878Z,12.66
2017-09-14T03:53:16.174Z,12.61
2017-09-14T03:55:44.474Z,12.62
2017-09-14T03:58:12.779Z,12.68
2017-09-14T04:00:41.868Z,12.76
2017-09-14T04:03:10.943Z,12.84
2017-09-14T04:05:39.245Z,12.85
2017-09-14T04:08:08.298Z,12.80
2017-09-14T04:10:36.640Z,12.90
2017-09-14T04:13:04.934Z,12.89
2017-09-14T04:15:33.230Z,12.94
2017-09-14T04:18:01.546Z,12.92
2017-09-14T04:20:30.612Z,12.89
2017-09-14T04:22:58.934Z,12.86
2017-09-14T04:25:27.229Z,12.85
2017-09-14T04:27:55.547Z,12.83
2017-09-14T04:30:23.838Z,12.87
2017-09-14T04:32:52.166Z,12.85
2017-09-14T04:35:20.466Z,12.90
2017-09-14T04:37:49.533Z,12.97
2017-09-14T04:40:17.838Z,12.90
2017-09-14T04:42:46.137Z,12.88
2017-09-14T04:45:14.450Z,12.86
2017-09-14T04:47:42.746Z,12.88
2017-09-14T04:50:11.119Z,12.85
2017-09-14T04:52:39.423Z,12.90
2017-09-14T04:55:07.758Z,12.79
2017-09-14T04:57:36.057Z,12.89
2017-09-14T05:00:04.363Z,12.91
2017-09-14T05:02:32.682Z,12.88
2017-09-14T05:05:00.976Z,12.82
2017-09-14T05:07:29.281Z,12.85
2017-09-14T05:09:57.569Z,12.88
2017-09-14T05:12:25.913Z,12.87
2017-09-14T05:14:54.205Z,12.76
2017-09-14T05:17:22.534Z,12.87
2017-09-14T05:19:51.596Z,12.87
2017-09-14T05:22:19.904Z,12.86
2017-09-14T05:24:48.988Z,12.89
2017-09-14T05:27:17.288Z,12.89
2017-09-14T05:29:46.355Z,12.99
2017-09-14T05:32:14.655Z,13.03
2017-09-14T05:34:43.734Z,13.08
2017-09-14T05:37:12.814Z,13.10
2017-09-14T05:39:41.141Z,13.12
2017-09-14T05:42:09.446Z,13.06
2017-09-14T05:44:37.767Z,13.02
2017-09-14T05:47:06.846Z,13.01
2017-09-14T05:49:35.138Z,13.02
2017-09-14T05:52:04.209Z,13.15
2017-09-14T05:54:32.509Z,13.16
2017-09-14T05:57:01.590Z,13.22
2017-09-14T05:59:29.889Z,13.17
2017-09-14T06:01:58.986Z,13.22
2017-09-14T06:04:28.053Z,13.21
2017-09-14T06:06:56.350Z,13.22
2017-09-14T06:09:25.421Z,13.31
2017-09-14T06:11:53.717Z,13.36
2017-09-14T06:14:22.021Z,13.42
2017-09-14T06:16:50.313Z,13.47
2017-09-14T06:19:18.610Z,13.44
2017-09-14T06:21:46.907Z,13.52
2017-09-14T06:24:15.239Z,13.60
2017-09-14T06:26:43.558Z,13.65
2017-09-14T06:29:11.855Z,13.58
2017-09-14T06:31:40.162Z,13.62
2017-09-14T06:34:08.453Z,13.64
2017-09-14T06:36:36.837Z,13.67
2017-09-14T06:39:05.167Z,13.64
2017-09-14T06:41:34.246Z,13.53
2017-09-14T06:44:02.543Z,13.66
2017-09-14T06:46:31.646Z,13.71
2017-09-14T06:49:00.716Z,13.78
2017-09-14T06:51:29.017Z,13.79
2017-09-14T06:53:58.096Z,13.86
2017-09-14T06:56:26.393Z,14.02
2017-09-14T06:58:55.465Z,13.98
2017-09-14T07:01:23.766Z,14.07
2017-09-14T07:03:52.857Z,14.01
2017-09-14T07:06:21.927Z,14.07
2017-09-14T07:08:50.228Z,13.95
2017-09-14T07:11:19.303Z,14.17
2017-09-14T07:13:47.599Z,14.41
2017-09-14T07:16:16.676Z,14.49
2017-09-14T07:18:44.974Z,14.55
2017-09-14T07:21:14.049Z,14.69
2017-09-14T07:23:42.343Z,14.81
2017-09-14T07:26:11.447Z,14.69
2017-09-14T07:28:40.506Z,14.68
2017-09-14T07:31:08.807Z,14.54
2017-09-14T07:33:37.883Z,14.62
2017-09-14T07:36:06.193Z,14.45
2017-09-14T07:38:34.501Z,14.69
2017-09-14T07:41:02.802Z,14.75
2017-09-14T07:43:31.109Z,14.76
2017-09-14T07:46:00.170Z,14.85
2017-09-14T07:48:28.525Z,14.99
2017-09-14T07:50:56.829Z,14.76
2017-09-14T07:53:25.141Z,14.92
2017-09-14T07:55:54.242Z,15.01
2017-09-14T07:58:23.305Z,15.12
2017-09-14T08:00:51.605Z,15.16
2017-09-14T08:03:20.678Z,15.22
2017-09-14T08:05:48.982Z,15.11
2017-09-14T08:08:18.050Z,15.01
2017-09-14T08:10:46.395Z,14.94
2017-09-14T08:13:14.709Z,14.99
2017-09-14T08:15:43.003Z,14.98
2017-09-14T08:18:12.071Z,15.12
2017-09-14T08:20:40.361Z,15.14
2017-09-14T08:23:08.666Z,15.19
2017-09-14T08:25:37.003Z,15.13
2017-09-14T08:28:05.320Z,15.07
2017-09-14T08:30:34.378Z,15.26
2017-09-14T08:33:02.674Z,15.55
2017-09-14T08:35:31.763Z,15.60
2017-09-14T08:38:00.067Z,15.73
2017-09-14T08:40:28.365Z,15.65
2017-09-14T08:42:56.669Z,15.51
2017-09-14T08:45:25.006Z,15.48
2017-09-14T08:47:53.311Z,15.58
2017-09-14T08:50:21.611Z,16.00
2017-09-14T08:52:49.917Z,16.08
2017-09-14T08:55:18.982Z,16.04
2017-09-14T08:57:47.299Z,16.04
2017-09-14T09:00:15.600Z,16.03
2017-09-14T09:02:43.946Z,15.94
2017-09-14T09:05:13.014Z,15.84
2017-09-14T09:07:41.311Z,15.84
2017-09-14T09:10:10.391Z,15.89
2017-09-14T09:12:38.739Z,16.02
2017-09-14T09:15:07.041Z,15.72
2017-09-14T09:17:35.561Z,15.46
2017-09-14T09:20:03.899Z,15.30
2017-09-14T09:22:32.201Z,15.22
2017-09-14T09:25:01.275Z,15.11
2017-09-14T09:27:29.595Z,15.05
2017-09-14T09:29:57.894Z,15.45
2017-09-14T09:32:26.194Z,15.48
2017-09-14T09:34:54.489Z,15.53
2017-09-14T09:37:22.789Z,15.39
2017-09-14T09:39:51.866Z,15.36
2017-09-14T09:42:20.170Z,15.31
2017-09-14T09:44:48.487Z,15.32
2017-09-14T09:47:16.790Z,15.15
2017-09-14T09:49:45.085Z,15.48
2017-09-14T09:52:14.154Z,15.60
2017-09-14T09:54:42.450Z,15.69
2017-09-14T09:57:11.546Z,16.00
2017-09-14T09:59:40.622Z,16.66
2017-09-14T10:02:10.006Z,17.02
2017-09-14T10:04:38.330Z,17.23
2017-09-14T10:07:07.395Z,17.27
2017-09-14T10:09:35.724Z,17.69
2017-09-14T10:12:04.023Z,17.80
2017-09-14T10:14:32.326Z,18.10
2017-09-14T10:17:00.634Z,17.63
2017-09-14T10:19:29.694Z,17.20
2017-09-14T10:21:58.039Z,17.19
2017-09-14T10:24:26.349Z,16.41
2017-09-14T10:26:54.659Z,16.46
2017-09-14T10:29:22.985Z,16.28
2017-09-14T10:31:51.281Z,16.19
2017-09-14T10:34:19.611Z,16.27
2017-09-14T10:36:47.913Z,16.11
2017-09-14T10:39:16.236Z,16.32
2017-09-14T10:41:45.319Z,16.82
2017-09-14T10:44:13.619Z,17.23
2017-09-14T10:46:42.727Z,17.99
2017-09-14T10:49:11.030Z,17.57
2017-09-14T10:51:39.330Z,18.00
2017-09-14T10:54:07.645Z,18.03
2017-09-14T10:56:36.707Z,18.58
2017-09-14T10:59:05.046Z,18.76
2017-09-14T11:01:33.342Z,18.66
2017-09-14T11:04:01.646Z,18.13
2017-09-14T11:06:29.954Z,18.10
2017-09-14T11:08:59.014Z,17.70
2017-09-14T11:14:24.807Z,17.71
2017-09-14T11:16:53.104Z,18.15
2017-09-14T11:19:21.444Z,18.10
2017-09-14T11:21:50.497Z,18.52
2017-09-14T11:24:18.784Z,18.47
2017-09-14T11:26:47.084Z,18.02
2017-09-14T11:29:16.141Z,18.00
2017-09-14T11:31:44.460Z,17.78
2017-09-14T11:34:12.761Z,17.48
2017-09-14T11:36:41.061Z,17.46
2017-09-14T11:39:09.374Z,17.36
2017-09-14T11:41:37.717Z,17.24
2017-09-14T11:44:06.850Z,17.12
2017-09-14T11:46:35.137Z,17.29
2017-09-14T11:49:04.189Z,17.18
2017-09-14T11:51:32.495Z,16.94
2017-09-14T11:54:01.561Z,16.96
2017-09-14T11:56:29.882Z,17.15
2017-09-14T11:58:58.941Z,17.08
2017-09-14T12:01:27.229Z,17.03
2017-09-14T12:03:55.532Z,17.12
2017-09-14T12:06:24.605Z,17.30
2017-09-14T12:08:52.938Z,16.93
2017-09-14T12:11:21.231Z,17.14
2017-09-14T12:13:49.523Z,17.24
2017-09-14T12:16:17.824Z,17.15
2017-09-14T12:18:46.882Z,17.08
2017-09-14T12:21:15.176Z,16.85
2017-09-14T12:23:43.464Z,16.95
2017-09-14T12:26:11.793Z,17.29
2017-09-14T12:28:40.088Z,17.43
2017-09-14T12:31:08.377Z,17.30
2017-09-14T12:33:36.745Z,17.89
2017-09-14T12:36:05.038Z,18.85
2017-09-14T12:38:33.373Z,19.09
2017-09-14T12:41:01.665Z,19.25
2017-09-14T12:43:30.049Z,18.85
2017-09-14T12:45:58.341Z,18.17
2017-09-14T12:48:26.633Z,17.55
2017-09-14T12:50:54.937Z,17.46
2017-09-14T12:53:23.995Z,16.84
2017-09-14T12:55:52.314Z,16.89
2017-09-14T12:58:20.607Z,17.09
2017-09-14T13:00:48.901Z,16.85
2017-09-14T13:03:17.943Z,17.52
2017-09-14T13:05:46.997Z,18.04
2017-09-14T13:08:15.320Z,17.40
2017-09-14T13:10:44.473Z,17.22
2017-09-14T13:13:12.761Z,17.44
2017-09-14T13:15:41.134Z,16.71
2017-09-14T13:18:09.437Z,15.22
2017-09-14T13:20:38.532Z,14.32
2017-09-14T13:23:06.829Z,12.95
2017-09-14T13:25:35.885Z,12.65
2017-09-14T13:28:04.185Z,12.71
2017-09-14T13:30:33.250Z,13.76
2017-09-14T13:33:01.582Z,13.89
2017-09-14T13:35:29.889Z,13.57
2017-09-14T13:37:58.177Z,13.64
2017-09-14T13:40:26.482Z,13.16
2017-09-14T13:42:55.549Z,12.98
2017-09-14T13:45:23.872Z,13.28
2017-09-14T13:47:52.926Z,13.03
2017-09-14T13:50:21.305Z,12.70
2017-09-14T13:52:49.606Z,12.91
2017-09-14T13:55:17.897Z,13.42
2017-09-14T13:57:46.995Z,14.49
2017-09-14T14:00:16.052Z,14.93
2017-09-14T14:02:44.349Z,15.99
2017-09-14T14:05:12.649Z,15.53
2017-09-14T14:07:41.701Z,15.59
2017-09-14T14:10:10.788Z,15.00
2017-09-14T14:12:39.076Z,15.26
2017-09-14T14:15:07.360Z,15.40
2017-09-14T14:17:35.667Z,15.66
2017-09-14T14:20:04.726Z,15.97
2017-09-14T14:22:33.066Z,15.63
2017-09-14T14:25:01.389Z,15.54
2017-09-14T14:27:29.685Z,15.86
2017-09-14T14:29:58.762Z,15.73
2017-09-14T14:32:27.070Z,15.49
2017-09-14T14:34:55.388Z,15.87
2017-09-14T14:37:23.689Z,16.04
2017-09-14T14:39:51.985Z,15.80
2017-09-14T14:42:21.063Z,15.69
2017-09-14T14:44:49.358Z,15.50
2017-09-14T14:47:18.449Z,15.45
2017-09-14T14:49:47.505Z,15.80
2017-09-14T14:52:15.807Z,15.76
2017-09-14T14:54:44.110Z,16.25
2017-09-14T14:57:13.177Z,16.69
2017-09-14T14:59:41.899Z,16.46
2017-09-14T15:02:10.189Z,16.65
2017-09-14T15:04:38.490Z,16.04
2017-09-14T15:07:06.797Z,15.82
2017-09-14T15:09:35.094Z,15.75
2017-09-14T15:12:04.199Z,16.37
2017-09-14T15:14:32.490Z,16.61
2017-09-14T15:17:00.790Z,16.52
2017-09-14T15:19:29.077Z,16.28
2017-09-14T15:21:57.382Z,16.27
2017-09-14T15:24:25.680Z,16.37
2017-09-14T15:26:54.794Z,16.26
2017-09-14T15:29:23.821Z,16.27
2017-09-14T15:31:52.145Z,16.14
2017-09-14T15:34:21.206Z,15.73
2017-09-14T15:36:49.498Z,15.82
2017-09-14T15:39:23.462Z,15.56
2017-09-14T15:41:51.779Z,15.23
2017-09-14T15:44:25.373Z,15.71
2017-09-14T15:46:53.675Z,15.73
2017-09-14T15:49:28.099Z,15.74
2017-09-14T15:51:57.162Z,15.59
2017-09-14T15:54:25.471Z,15.45
2017-09-14T15:56:53.785Z,15.38
2017-09-14T15:59:22.086Z,15.34
2017-09-14T16:01:50.381Z,15.18
2017-09-14T16:04:18.689Z,15.33
2017-09-14T16:06:46.986Z,15.29
2017-09-14T16:09:15.314Z,15.30
2017-09-14T16:11:43.607Z,15.30
2017-09-14T16:14:12.677Z,15.26
2017-09-14T16:16:40.992Z,15.24
2017-09-14T16:19:10.057Z,15.27
2017-09-14T16:21:38.382Z,15.06
2017-09-14T16:24:06.678Z,15.00
2017-09-14T16:26:34.984Z,14.87
2017-09-14T16:29:03.282Z,14.64
2017-09-14T16:31:32.340Z,14.50
2017-09-14T16:34:00.651Z,14.33
2017-09-14T16:36:29.712Z,14.25
2017-09-14T16:38:58.025Z,14.14
2017-09-14T16:41:27.092Z,14.06
2017-09-14T16:43:55.430Z,14.04
2017-09-14T16:49:20.546Z,13.95
2017-09-14T16:51:49.254Z,13.86
2017-09-14T16:54:17.584Z,13.89
2017-09-14T16:56:46.642Z,13.91
2017-09-14T16:59:14.952Z,13.90
2017-09-14T17:01:44.033Z,13.81
2017-09-14T17:04:12.337Z,13.70
2017-09-14T17:06:41.418Z,13.57
2017-09-14T17:09:10.486Z,13.60
2017-09-14T17:11:38.790Z,13.51
2017-09-14T17:14:07.090Z,13.43
2017-09-14T17:16:35.387Z,13.39
2017-09-14T17:19:03.693Z,13.28
2017-09-14T17:21:31.995Z,13.23
2017-09-14T17:24:00.302Z,13.15
2017-09-14T17:26:28.598Z,13.11
2017-09-14T17:28:56.910Z,13.13
2017-09-14T17:31:25.209Z,13.18
2017-09-14T17:33:54.280Z,13.15
2017-09-14T17:36:22.581Z,13.20
2017-09-14T17:38:51.687Z,13.21
2017-09-14T17:41:20.761Z,13.18
2017-09-14T17:43:49.065Z,13.17
2017-09-14T17:46:17.422Z,13.22
2017-09-14T17:48:45.717Z,13.26
2017-09-14T17:51:14.796Z,13.27
2017-09-14T17:53:43.883Z,13.31
2017-09-14T17:56:12.189Z,13.29
2017-09-14T17:58:40.486Z,13.29
2017-09-14T18:01:08.815Z,13.37
2017-09-14T18:03:37.121Z,13.41
2017-09-14T18:06:05.418Z,13.41
2017-09-14T18:08:33.732Z,13.44
2017-09-14T18:11:02.038Z,13.43
2017-09-14T18:13:31.106Z,13.36
2017-09-14T18:15:59.407Z,13.35
2017-09-14T18:18:28.492Z,13.37
2017-09-14T18:20:56.793Z,13.41
2017-09-14T18:23:25.090Z,13.38
2017-09-14T18:25:53.402Z,13.40
2017-09-14T18:28:21.701Z,13.45
2017-09-14T18:30:50.003Z,13.45
2017-09-14T18:33:18.356Z,13.44
2017-09-14T18:38:15.021Z,13.47
2017-09-14T18:40:44.165Z,13.49
2017-09-14T18:43:13.237Z,13.49
2017-09-14T18:45:41.545Z,13.45
2017-09-14T18:48:09.854Z,13.50
2017-09-14T18:50:38.157Z,13.41
2017-09-14T18:53:07.289Z,13.38
2017-09-14T18:55:35.599Z,13.38
2017-09-14T18:58:03.926Z,13.34
2017-09-14T19:00:32.223Z,13.30
2017-09-14T19:03:00.572Z,13.36
2017-09-14T19:05:28.905Z,13.26
2017-09-14T19:07:57.235Z,13.28
2017-09-14T19:10:25.559Z,13.03
2017-09-14T19:12:53.859Z,13.08
2017-09-14T19:15:22.967Z,12.94
2017-09-14T19:17:52.076Z,13.00
2017-09-14T19:20:20.395Z,12.96
2017-09-14T19:22:48.698Z,12.88
2017-09-14T19:25:16.998Z,12.77
2017-09-14T19:27:45.302Z,12.69
2017-09-14T19:30:13.600Z,12.77
2017-09-14T19:32:41.902Z,12.80
2017-09-14T19:35:10.210Z,12.76
2017-09-14T19:37:38.542Z,12.82
2017-09-14T19:40:06.848Z,12.77
2017-09-14T19:42:35.912Z,12.76
2017-09-14T19:45:04.222Z,12.58
2017-09-14T19:47:33.283Z,12.52
2017-09-14T19:50:01.589Z,12.54
2017-09-14T19:52:30.654Z,12.44
2017-09-14T19:54:58.966Z,12.42
2017-09-14T19:57:28.075Z,12.30
2017-09-14T19:59:56.426Z,12.23
2017-09-14T20:02:24.726Z,11.84
2017-09-14T20:04:53.803Z,11.77
2017-09-14T20:07:22.900Z,11.58
2017-09-14T20:09:51.970Z,11.50
2017-09-14T20:12:20.278Z,11.46
2017-09-14T20:14:49.346Z,11.45
2017-09-14T20:17:17.654Z,11.45
2017-09-14T20:19:46.719Z,11.47
2017-09-14T20:22:15.035Z,11.37
2017-09-14T20:24:43.330Z,11.44
2017-09-14T20:27:11.637Z,11.29
2017-09-14T20:29:39.938Z,11.35
2017-09-14T20:32:08.262Z,11.23
2017-09-14T20:34:36.566Z,11.24
2017-09-14T20:37:04.869Z,11.22
2017-09-14T20:39:33.189Z,11.27
2017-09-14T20:42:01.494Z,11.32
2017-09-14T20:44:29.815Z,11.26
2017-09-14T20:46:58.115Z,11.34
2017-09-14T20:49:26.528Z,11.36
2017-09-14T20:51:54.830Z,11.30
2017-09-14T20:54:23.188Z,11.30
2017-09-14T20:56:51.489Z,11.31
2017-09-14T20:59:19.795Z,11.17
2017-09-14T21:01:48.117Z,11.22
2017-09-14T21:04:16.423Z,11.22
2017-09-14T21:06:44.763Z,11.17
2017-09-14T21:09:13.070Z,11.18
2017-09-14T21:11:41.366Z,11.10
2017-09-14T21:14:09.677Z,11.22
2017-09-14T21:16:38.746Z,11.09
2017-09-14T21:19:07.075Z,11.10
2017-09-14T21:21:35.370Z,11.08
2017-09-14T21:24:03.673Z,11.16
2017-09-14T21:26:31.971Z,11.12
2017-09-14T21:29:00.278Z,11.12
2017-09-14T21:31:28.576Z,11.15
2017-09-14T21:33:56.874Z,11.10
2017-09-14T21:36:25.181Z,11.10
2017-09-14T21:38:53.485Z,11.02
2017-09-14T21:41:21.793Z,11.03
2017-09-14T21:43:50.085Z,11.16
2017-09-14T21:46:18.388Z,11.05
2017-09-14T21:48:46.693Z,11.14
2017-09-14T21:51:15.009Z,11.14
2017-09-14T21:53:43.302Z,11.27
2017-09-14T21:56:11.640Z,11.30
2017-09-14T21:58:39.932Z,11.29
2017-09-14T22:01:08.226Z,11.35
2017-09-14T22:03:36.551Z,11.39
2017-09-14T22:06:05.609Z,11.33
2017-09-14T22:08:33.913Z,11.37
2017-09-14T22:11:02.965Z,11.45
2017-09-14T22:13:31.292Z,11.50
2017-09-14T22:16:00.354Z,11.48
2017-09-14T22:18:28.652Z,11.58
2017-09-14T22:20:57.721Z,11.51
2017-09-14T22:23:26.022Z,11.58
2017-09-14T22:25:55.102Z,11.48
2017-09-14T22:28:23.393Z,11.52
2017-09-14T22:30:51.690Z,11.61
2017-09-14T22:33:20.002Z,11.54
2017-09-14T22:35:48.330Z,11.64
2017-09-14T22:38:17.398Z,11.67
2017-09-14T22:40:45.690Z,11.68
2017-09-14T22:43:13.989Z,11.65
2017-09-14T22:45:43.050Z,11.74
2017-09-14T22:48:11.351Z,11.84
2017-09-14T22:50:39.650Z,11.84
2017-09-14T22:53:07.977Z,11.86
2017-09-14T22:55:36.285Z,11.99
2017-09-14T22:58:05.371Z,11.99
2017-09-14T23:00:33.697Z,12.05
2017-09-14T23:03:01.997Z,11.99
2017-09-14T23:05:30.312Z,11.99
2017-09-14T23:07:59.382Z,12.03
2017-09-14T23:10:27.706Z,12.09
2017-09-14T23:12:56.009Z,12.03
2017-09-14T23:15:24.373Z,12.06
2017-09-14T23:17:52.683Z,12.09
2017-09-14T23:20:21.022Z,12.14
2017-09-14T23:22:49.317Z,12.19
2017-09-14T23:25:17.614Z,12.18
2017-09-14T23:27:45.928Z,12.26
2017-09-14T23:30:14.997Z,12.29
2017-09-14T23:32:43.311Z,12.32
2017-09-14T23:35:11.613Z,12.40
2017-09-14T23:37:39.934Z,12.41
2017-09-14T23:40:08.230Z,12.47
2017-09-14T23:42:37.317Z,12.48
2017-09-14T23:45:06.386Z,12.55
2017-09-14T23:47:34.746Z,12.58
2017-09-14T23:50:03.077Z,12.55
2017-09-14T23:52:32.147Z,12.64
2017-09-14T23:55:00.478Z,12.65
2017-09-14T23:57:28.791Z,12.67
2017-09-14T23:59:57.118Z,12.60
